Terminal Aerodrome Forecast
Issued by NWS

Home | Current Version | Previous Version | Text Only | Print | Product List | Glossary On
Versions: 1 2 3 4 5 6 7 8 9 10 11 12 13 14 15 16 17
513
FTUS43 KDTX 211120
TAFMBS
TAF
KMBS 211120Z 2112/2212 22018G27KT P6SM BKN250
     FM211500 24014G24KT P6SM OVC100
     FM212000 28014G22KT P6SM SCT030 OVC060
     FM220000 31011G19KT P6SM BKN040=

USA.gov is the U.S. government's official web portal to all federal, state and local government web resources and services.